Time;durP1;ratioP1;P1;durP2;ratioP2;P2;SDS_P1;SDS_P2;PMS_P1;PMS_P2;Temp;Humidity;BMP_temperature;BMP_pressure;BME280_temperature;BME280_humidity;BME280_pressure;Samples;Min_cycle;Max_cycle;Signal;HPM_P1;HPM_P2
2023/01/07 00:00:03;;;;;;;16.47;15.00;;;;;;;5.09;79.21;93478.72;5090279;28;20240;-71
2023/01/07 00:02:28;;;;;;;13.60;12.40;;;;;;;4.96;80.58;93479.72;5089530;28;20196;-71
2023/01/07 00:04:53;;;;;;;17.30;15.63;;;;;;;4.79;81.47;93473.59;5091117;28;20232;-74
2023/01/07 00:07:19;;;;;;;15.60;14.00;;;;;;;4.66;81.85;93472.00;5091775;28;20193;-75
2023/01/07 00:09:44;;;;;;;14.00;12.90;;;;;;;4.60;82.22;93469.50;5090998;28;20251;-73
2023/01/07 00:12:09;;;;;;;15.53;14.07;;;;;;;4.52;82.55;93462.84;5091283;28;20196;-73
2023/01/07 00:14:35;;;;;;;15.93;14.53;;;;;;;4.53;82.57;93472.19;5091537;28;20212;-73
2023/01/07 00:17:00;;;;;;;12.03;11.20;;;;;;;4.70;82.28;93465.38;5092343;28;20191;-73
2023/01/07 00:19:25;;;;;;;15.70;13.67;;;;;;;4.60;81.77;93475.47;5090924;28;20232;-72
2023/01/07 00:21:51;;;;;;;13.80;12.50;;;;;;;4.51;82.34;93471.59;5091447;28;20203;-72
2023/01/07 00:24:16;;;;;;;14.60;12.97;;;;;;;4.33;82.33;93463.09;5091815;28;20224;-72
2023/01/07 00:26:42;;;;;;;14.80;13.40;;;;;;;4.12;83.79;93484.28;5091878;28;20184;-72
2023/01/07 00:29:08;;;;;;;14.27;12.90;;;;;;;4.19;83.00;93457.34;5090495;28;20220;-71
2023/01/07 00:31:35;;;;;;;13.30;12.20;;;;;;;4.30;83.02;93466.94;5091228;28;20185;-72
2023/01/07 00:36:29;;;;;;;13.73;12.47;;;;;;;4.10;82.96;93466.41;5093028;28;20187;-73
2023/01/07 00:39:01;;;;;;;12.83;11.73;;;;;;;4.26;82.39;93465.00;5092258;28;20192;-72
2023/01/07 00:41:26;;;;;;;14.07;12.90;;;;;;;4.00;82.71;93479.03;5094432;28;20254;-73
2023/01/07 00:43:52;;;;;;;14.70;13.43;;;;;;;4.05;82.89;93476.59;5091002;28;20189;-73
2023/01/07 00:46:17;;;;;;;15.50;14.10;;;;;;;3.58;84.36;93485.06;5091062;28;20244;-72
2023/01/07 00:48:46;;;;;;;14.90;13.37;;;;;;;3.65;85.34;93487.59;5091074;28;20284;-72
2023/01/07 00:51:13;;;;;;;11.97;11.07;;;;;;;3.49;85.37;93488.94;5091037;28;20229;-73
2023/01/07 00:53:38;;;;;;;15.40;13.87;;;;;;;3.41;85.83;93466.00;5092243;28;20510;-72
2023/01/07 00:56:04;;;;;;;13.53;12.43;;;;;;;3.47;86.62;93483.19;5091010;28;20236;-72
2023/01/07 00:58:30;;;;;;;13.90;12.70;;;;;;;3.67;86.05;93483.81;5091197;28;20200;-72
2023/01/07 01:00:58;;;;;;;14.57;13.17;;;;;;;3.36;86.65;93473.59;5090591;28;20212;-73
2023/01/07 01:03:24;;;;;;;15.77;13.23;;;;;;;3.66;85.36;93487.38;5091185;28;20252;-73
2023/01/07 01:05:49;;;;;;;14.27;13.03;;;;;;;3.52;85.61;93487.75;5090127;28;20232;-73
2023/01/07 01:08:16;;;;;;;14.30;12.93;;;;;;;3.16;87.12;93485.88;5091060;28;20220;-73
2023/01/07 01:10:42;;;;;;;13.00;12.00;;;;;;;3.23;86.80;93496.94;5093974;28;20224;-73
2023/01/07 01:13:11;;;;;;;14.07;12.67;;;;;;;3.08;88.06;93497.25;5090792;28;20173;-73
2023/01/07 01:15:41;;;;;;;15.30;13.83;;;;;;;3.00;88.50;93501.91;5090211;28;20266;-72
2023/01/07 01:18:06;;;;;;;15.13;13.77;;;;;;;3.14;88.51;93493.81;5091669;28;20244;-73
2023/01/07 01:20:33;;;;;;;15.20;13.93;;;;;;;3.12;88.50;93495.06;5090593;28;20243;-73
2023/01/07 01:22:58;;;;;;;15.37;13.20;;;;;;;3.19;88.52;93486.25;5092038;28;20179;-72
2023/01/07 01:25:23;;;;;;;14.10;12.83;;;;;;;3.46;87.54;93491.97;5090398;28;20220;-73
2023/01/07 01:27:49;;;;;;;13.90;12.70;;;;;;;3.12;88.69;93464.91;5090338;28;20185;-73
2023/01/07 01:30:14;;;;;;;13.10;12.10;;;;;;;3.17;88.89;93492.63;5091309;28;20209;-73
2023/01/07 01:32:39;;;;;;;14.63;13.40;;;;;;;3.46;88.20;93497.13;5090498;28;20189;-73
2023/01/07 01:35:05;;;;;;;13.43;12.20;;;;;;;3.47;88.18;93493.53;5089426;28;20250;-73
2023/01/07 01:37:30;;;;;;;12.20;11.17;;;;;;;3.38;88.24;93488.88;5090695;28;20196;-73
2023/01/07 01:39:56;;;;;;;13.80;12.60;;;;;;;3.18;89.30;93481.31;5091278;28;20231;-73
2023/01/07 01:42:23;;;;;;;12.10;11.10;;;;;;;3.46;89.90;93486.78;5090742;28;20227;-73
2023/01/07 01:45:00;;;;;;;14.13;13.00;;;;;;;3.38;88.77;93494.81;5086268;28;20232;-73
2023/01/07 01:47:36;;;;;;;13.53;12.33;;;;;;;3.28;89.26;93476.47;5090577;28;20200;-72
2023/01/07 01:50:20;;;;;;;12.13;11.20;;;;;;;3.33;89.21;93482.53;5088682;28;20977;-73
2023/01/07 01:53:00;;;;;;;15.30;14.20;;;;;;;3.34;88.61;93488.50;5090035;28;20195;-73
2023/01/07 01:55:49;;;;;;;13.10;11.83;;;;;;;3.01;89.39;93498.31;5089445;28;20236;-73
2023/01/07 01:58:20;;;;;;;14.63;13.13;;;;;;;2.82;90.33;93474.25;5089416;28;20214;-73
2023/01/07 02:00:47;;;;;;;14.83;13.57;;;;;;;3.03;90.30;93473.13;5089757;28;20288;-73
2023/01/07 02:03:18;;;;;;;14.77;13.33;;;;;;;3.08;90.23;93476.63;5089880;28;20208;-73
2023/01/07 02:05:45;;;;;;;13.37;12.17;;;;;;;3.10;89.84;93482.38;5089654;28;20224;-73
2023/01/07 02:08:10;;;;;;;13.83;12.13;;;;;;;2.87;90.63;93476.22;5090018;28;20192;-72
2023/01/07 02:10:37;;;;;;;12.27;11.33;;;;;;;2.98;91.39;93480.69;5089047;28;20322;-73
2023/01/07 02:13:09;;;;;;;12.03;11.13;;;;;;;3.11;91.20;93467.69;5089955;28;20187;-73
2023/01/07 02:15:53;;;;;;;12.57;11.60;;;;;;;3.21;92.62;93470.56;5090892;28;20225;-73
2023/01/07 02:18:34;;;;;;;11.93;10.97;;;;;;;3.40;91.34;93467.00;5090086;28;20193;-73
2023/01/07 02:21:16;;;;;;;12.13;11.27;;;;;;;3.36;90.68;93478.78;5090314;28;20250;-73
2023/01/07 02:24:00;;;;;;;11.93;11.03;;;;;;;3.48;91.29;93477.06;5087845;28;20620;-74
2023/01/07 02:26:43;;;;;;;11.20;10.50;;;;;;;3.57;91.25;93467.22;5070588;28;20696;-74
2023/01/07 02:29:33;;;;;;;11.20;10.50;;;;;;;3.81;90.95;93471.53;5067909;28;21630;-73
2023/01/07 02:32:11;;;;;;;11.50;10.90;;;;;;;3.75;90.12;93449.94;5069271;28;20185;-73
2023/01/07 02:34:39;;;;;;;10.83;10.23;;;;;;;3.97;89.65;93463.97;5076445;28;20220;-72
2023/01/07 02:37:16;;;;;;;10.77;10.17;;;;;;;4.15;88.26;93458.78;5087840;28;21540;-73
2023/01/07 02:39:48;;;;;;;11.77;11.10;;;;;;;4.15;87.92;93466.56;5086537;28;20251;-73
2023/01/07 02:42:22;;;;;;;11.73;10.93;;;;;;;4.01;89.29;93461.75;5089459;28;20205;-73
2023/01/07 02:44:58;;;;;;;11.97;11.27;;;;;;;4.18;87.78;93465.31;5088037;28;20302;-73
2023/01/07 02:47:42;;;;;;;12.87;12.03;;;;;;;4.15;87.52;93458.00;5089359;28;20194;-73
2023/01/07 02:50:08;;;;;;;11.73;10.97;;;;;;;3.77;88.15;93455.69;5088291;28;20233;-73
2023/01/07 02:52:35;;;;;;;11.83;10.93;;;;;;;3.72;88.98;93454.75;5088595;28;20211;-73
2023/01/07 02:55:10;;;;;;;10.93;10.23;;;;;;;3.94;88.86;93454.06;5091433;28;20258;-73
2023/01/07 02:58:06;;;;;;;11.60;10.57;;;;;;;3.91;88.70;93456.31;5095560;28;20192;-72
2023/01/07 03:00:50;;;;;;;12.13;11.43;;;;;;;3.81;88.37;93468.94;5095403;28;20232;-73
2023/01/07 03:03:41;;;;;;;11.93;10.67;;;;;;;3.84;87.92;93478.84;5095767;28;20197;-73
2023/01/07 03:06:21;;;;;;;12.27;11.43;;;;;;;3.63;88.92;93480.06;5110875;28;20245;-73
2023/01/07 03:09:10;;;;;;;11.70;10.93;;;;;;;3.67;89.01;93478.66;5095095;28;20899;-73
2023/01/07 03:11:48;;;;;;;12.17;11.23;;;;;;;3.48;89.16;93459.00;5096549;28;20187;-73
2023/01/07 03:14:19;;;;;;;11.63;10.90;;;;;;;3.43;90.07;93482.06;5095096;28;20287;-73
2023/01/07 03:16:53;;;;;;;12.03;11.03;;;;;;;3.30;89.74;93466.69;5095613;28;20223;-72
2023/01/07 03:19:23;;;;;;;11.77;10.87;;;;;;;3.34;90.95;93478.19;5095018;28;20224;-73
2023/01/07 03:21:50;;;;;;;12.20;11.37;;;;;;;3.04;91.28;93482.41;5095756;28;21305;-73
2023/01/07 03:24:16;;;;;;;11.63;10.93;;;;;;;2.97;92.09;93471.38;5095430;28;20228;-73
2023/01/07 03:26:46;;;;;;;12.23;11.23;;;;;;;2.90;92.20;93465.47;5095463;28;20258;-73
2023/01/07 03:29:14;;;;;;;12.93;11.87;;;;;;;3.03;91.76;93471.34;5095457;28;20235;-73
2023/01/07 03:31:52;;;;;;;12.93;12.00;;;;;;;3.01;91.42;93472.53;5095806;28;20188;-73
2023/01/07 03:34:21;;;;;;;11.77;10.83;;;;;;;2.83;92.07;93481.00;5096483;28;20235;-73
2023/01/07 03:36:54;;;;;;;13.17;12.10;;;;;;;2.68;93.06;93470.22;5096364;28;20177;-73
2023/01/07 03:39:23;;;;;;;13.53;12.63;;;;;;;2.71;92.44;93472.38;5094607;28;20235;-73
2023/01/07 03:44:34;;;;;;;14.10;12.93;;;;;;;2.77;92.25;93466.38;5094826;28;20262;-73
2023/01/07 03:46:59;;;;;;;13.10;12.00;;;;;;;2.65;92.67;93472.41;5095913;28;20197;-73
2023/01/07 03:49:25;;;;;;;15.03;12.43;;;;;;;2.45;92.92;93476.91;5096080;28;20221;-74
2023/01/07 03:51:53;;;;;;;13.47;11.87;;;;;;;2.36;94.32;93473.81;5098023;28;20199;-73
2023/01/07 03:54:19;;;;;;;13.33;12.27;;;;;;;2.29;94.57;93473.03;5095336;28;20286;-73
2023/01/07 03:56:44;;;;;;;14.60;13.47;;;;;;;2.56;93.98;93473.66;5095406;28;20189;-73
2023/01/07 03:59:09;;;;;;;13.53;12.33;;;;;;;2.24;95.10;93490.13;5095145;28;20251;-73
2023/01/07 04:01:35;;;;;;;14.23;12.93;;;;;;;2.33;94.44;93481.16;5096027;28;20188;-72
2023/01/07 04:04:00;;;;;;;14.20;13.07;;;;;;;2.30;94.34;93494.44;5095172;28;20188;-72
2023/01/07 04:06:26;;;;;;;14.27;12.37;;;;;;;2.20;94.19;93471.72;5093467;28;20223;-72
2023/01/07 04:08:51;;;;;;;14.40;13.33;;;;;;;2.10;93.90;93483.47;5091462;28;21105;-72
2023/01/07 04:11:16;;;;;;;13.40;12.07;;;;;;;2.02;94.46;93506.88;5092458;28;20213;-73
2023/01/07 04:13:42;;;;;;;15.63;13.23;;;;;;;2.15;95.88;93501.66;5092422;28;20260;-73
2023/01/07 04:16:07;;;;;;;14.30;13.07;;;;;;;2.10;95.23;93483.47;5092039;28;20255;-73
2023/01/07 04:18:32;;;;;;;16.67;14.00;;;;;;;2.13;95.24;93498.50;5091846;28;20189;-73
2023/01/07 04:20:58;;;;;;;13.63;12.37;;;;;;;2.11;94.71;93505.63;5092204;28;20221;-72
2023/01/07 04:23:23;;;;;;;13.73;12.33;;;;;;;1.70;95.38;93449.38;5091783;28;20223;-73
2023/01/07 04:25:48;;;;;;;15.77;14.27;;;;;;;1.97;96.01;93507.47;5092914;28;20220;-73
2023/01/07 04:28:14;;;;;;;15.27;12.63;;;;;;;2.04;95.20;93503.09;5092348;28;20204;-73
2023/01/07 04:30:39;;;;;;;14.27;12.87;;;;;;;2.03;95.17;93503.28;5090777;28;20251;-73
2023/01/07 04:33:05;;;;;;;15.07;13.40;;;;;;;1.95;95.43;93506.88;5090305;28;20196;-73
2023/01/07 04:35:31;;;;;;;14.93;13.53;;;;;;;2.01;95.80;93516.38;5091144;28;20228;-73
2023/01/07 04:37:57;;;;;;;14.53;13.10;;;;;;;2.09;96.17;93510.19;5091653;28;20200;-73
2023/01/07 04:40:22;;;;;;;19.53;15.17;;;;;;;1.88;95.87;93493.28;5091084;28;20220;-73
2023/01/07 04:42:48;;;;;;;24.10;15.27;;;;;;;1.99;96.47;93504.69;5092013;28;20256;-73
2023/01/07 04:45:13;;;;;;;25.40;16.73;;;;;;;1.93;96.16;93477.22;5091724;28;20224;-71
2023/01/07 04:47:39;;;;;;;19.30;14.40;;;;;;;2.06;96.58;93508.03;5092289;28;20260;-71
2023/01/07 04:50:04;;;;;;;16.50;13.97;;;;;;;1.96;95.90;93502.53;5090849;28;20260;-72
2023/01/07 04:52:30;;;;;;;18.33;14.43;;;;;;;2.01;96.06;93511.22;5091177;28;20629;-71
2023/01/07 04:54:55;;;;;;;16.33;14.63;;;;;;;1.80;96.63;93487.53;5091988;28;20229;-71
2023/01/07 04:57:20;;;;;;;14.40;12.97;;;;;;;1.96;96.42;93507.69;5092393;28;20184;-72
2023/01/07 04:59:46;;;;;;;17.10;13.77;;;;;;;1.90;96.08;93518.81;5090896;28;20243;-71
2023/01/07 05:02:11;;;;;;;25.67;16.33;;;;;;;1.84;96.78;93507.53;5091869;28;20206;-72
2023/01/07 05:04:36;;;;;;;22.03;16.90;;;;;;;1.80;96.63;93515.84;5090530;28;20224;-72
2023/01/07 05:07:02;;;;;;;17.83;15.57;;;;;;;1.63;97.24;93513.72;5091565;28;20259;-72
2023/01/07 05:09:27;;;;;;;18.63;15.87;;;;;;;1.76;96.96;93500.03;5090172;28;20235;-71
2023/01/07 05:11:52;;;;;;;14.57;12.47;;;;;;;1.78;97.02;93507.53;5091413;28;20169;-71
2023/01/07 05:14:18;;;;;;;11.90;10.90;;;;;;;1.81;97.25;93509.72;5090407;28;20354;-71
2023/01/07 05:16:43;;;;;;;12.43;11.63;;;;;;;1.90;96.63;93518.81;5091990;28;20185;-72
2023/01/07 05:19:10;;;;;;;12.37;11.47;;;;;;;1.80;96.16;93508.94;5090527;28;20228;-73
2023/01/07 05:21:35;;;;;;;11.47;10.87;;;;;;;1.85;96.47;93510.91;5090761;28;20181;-71
2023/01/07 05:24:00;;;;;;;11.33;10.73;;;;;;;1.65;96.30;93506.59;5089732;28;20188;-73
2023/01/07 05:26:26;;;;;;;12.57;11.97;;;;;;;1.83;96.01;93520.59;5085159;28;20227;-72
2023/01/07 05:28:51;;;;;;;11.83;11.03;;;;;;;1.59;96.68;93486.81;5089024;28;20244;-72
2023/01/07 05:31:17;;;;;;;10.60;9.90;;;;;;;1.62;96.72;93488.19;5088329;28;20196;-72
2023/01/07 05:33:42;;;;;;;10.07;9.57;;;;;;;1.79;96.58;93522.78;5086608;28;20225;-73
2023/01/07 05:36:07;;;;;;;10.97;10.30;;;;;;;1.83;96.91;93523.16;5090601;28;20288;-72
2023/01/07 05:38:33;;;;;;;12.07;11.37;;;;;;;1.70;97.30;93536.09;5088377;28;20207;-73
2023/01/07 05:40:58;;;;;;;11.00;10.20;;;;;;;1.74;97.84;93525.19;5085246;28;20227;-72
2023/01/07 05:43:23;;;;;;;11.20;10.27;;;;;;;1.76;97.71;93533.47;5088675;28;20181;-72
2023/01/07 05:45:49;;;;;;;11.03;10.43;;;;;;;1.82;96.51;93514.69;5089336;28;20244;-73
2023/01/07 05:48:14;;;;;;;11.60;10.80;;;;;;;1.87;96.79;93525.13;5088090;28;20211;-73
2023/01/07 05:50:40;;;;;;;10.97;10.47;;;;;;;1.71;96.80;93524.81;5086897;28;20232;-72
2023/01/07 05:53:06;;;;;;;10.13;9.63;;;;;;;1.52;97.80;93509.22;5088929;28;20205;-72
2023/01/07 05:55:32;;;;;;;11.93;11.10;;;;;;;1.65;97.97;93526.38;5089714;28;20300;-72
2023/01/07 05:57:57;;;;;;;12.17;11.23;;;;;;;1.68;97.21;93531.16;5087229;28;20193;-72
2023/01/07 06:00:23;;;;;;;13.13;12.23;;;;;;;0.63;97.93;93366.00;5087407;28;20225;-74
2023/01/07 06:02:48;;;;;;;13.80;12.57;;;;;;;1.67;99.48;93521.06;5089545;28;20229;-73
2023/01/07 06:05:14;;;;;;;12.27;11.47;;;;;;;1.60;98.95;93508.97;5088111;28;20229;-73
2023/01/07 06:07:39;;;;;;;13.63;12.60;;;;;;;1.80;100.00;93528.72;5089269;28;20204;-73
2023/01/07 06:10:05;;;;;;;12.23;11.23;;;;;;;1.89;99.95;93538.59;5088366;28;20291;-73
2023/01/07 06:12:30;;;;;;;13.03;12.03;;;;;;;1.88;99.28;93537.03;5089396;28;20219;-73
2023/01/07 06:14:56;;;;;;;13.77;12.57;;;;;;;1.79;99.45;93532.31;5089532;28;20232;-73
2023/01/07 06:17:21;;;;;;;12.43;11.37;;;;;;;1.97;98.55;93537.59;5088391;28;20252;-73
2023/01/07 06:19:47;;;;;;;13.80;12.80;;;;;;;1.98;97.60;93549.47;5088010;28;20704;-72
2023/01/07 06:22:13;;;;;;;14.47;13.07;;;;;;;1.95;98.44;93548.09;5087552;28;20189;-72
2023/01/07 06:24:38;;;;;;;14.63;13.53;;;;;;;1.85;98.03;93531.50;5088580;28;20227;-73
2023/01/07 06:27:04;;;;;;;13.37;12.20;;;;;;;1.78;98.54;93534.09;5087396;28;20249;-73
2023/01/07 06:29:29;;;;;;;12.40;11.40;;;;;;;1.86;98.14;93533.06;5086852;28;20284;-73
2023/01/07 06:31:55;;;;;;;13.13;11.90;;;;;;;1.83;97.93;93533.47;5087956;28;20193;-72
2023/01/07 06:34:20;;;;;;;12.63;11.63;;;;;;;1.84;97.95;93542.78;5086278;28;20250;-73
2023/01/07 06:36:45;;;;;;;11.53;10.73;;;;;;;2.04;97.38;93551.22;5089963;28;20195;-74
2023/01/07 06:39:11;;;;;;;11.33;10.70;;;;;;;1.82;98.24;93529.31;5090401;28;20228;-74
2023/01/07 06:41:36;;;;;;;14.87;13.57;;;;;;;1.92;97.97;93532.25;5088961;28;20177;-77
2023/01/07 06:44:02;;;;;;;13.33;12.07;;;;;;;2.09;98.02;93548.81;5090412;28;20256;-72
2023/01/07 06:46:27;;;;;;;14.20;12.80;;;;;;;2.04;97.57;93548.66;5087959;28;20181;-77
2023/01/07 06:48:52;;;;;;;13.90;12.63;;;;;;;2.08;99.05;93552.41;5087909;28;20190;-72
2023/01/07 06:51:18;;;;;;;15.70;14.10;;;;;;;2.09;98.99;93546.25;5088352;28;20223;-71
2023/01/07 06:53:43;;;;;;;13.27;12.13;;;;;;;2.22;98.43;93553.94;5088687;28;20219;-71
2023/01/07 06:56:09;;;;;;;13.43;12.33;;;;;;;2.35;98.18;93546.16;5088630;28;20216;-79
2023/01/07 06:58:34;;;;;;;12.10;11.20;;;;;;;2.28;98.64;93564.22;5089741;28;20204;-76
2023/01/07 07:01:04;;;;;;;14.47;13.27;;;;;;;2.49;98.12;93555.41;5089378;28;20254;-75
2023/01/07 07:03:30;;;;;;;14.70;13.47;;;;;;;2.50;98.27;93551.81;5089104;28;20189;-73
2023/01/07 07:05:55;;;;;;;14.47;13.23;;;;;;;2.54;98.39;93563.28;5089091;28;20287;-77
2023/01/07 07:08:21;;;;;;;13.47;12.50;;;;;;;2.69;97.26;93556.06;5089272;28;20225;-74
2023/01/07 07:10:46;;;;;;;14.60;13.40;;;;;;;2.68;96.93;93537.22;5088928;28;20220;-73
2023/01/07 07:13:11;;;;;;;18.03;13.27;;;;;;;2.85;96.43;93558.94;5088515;28;20185;-72
2023/01/07 07:15:37;;;;;;;13.47;12.57;;;;;;;2.90;95.90;93548.78;5090103;28;20229;-73
2023/01/07 07:18:02;;;;;;;14.43;13.17;;;;;;;2.76;96.28;93547.28;5088733;28;20192;-77
2023/01/07 07:20:28;;;;;;;13.03;12.23;;;;;;;2.73;96.18;93536.59;5088839;28;20284;-80
2023/01/07 07:22:53;;;;;;;14.73;13.50;;;;;;;2.75;96.44;93534.63;5087463;28;20210;-75
2023/01/07 07:25:19;;;;;;;15.27;13.93;;;;;;;2.98;96.02;93550.31;5084998;28;20227;-75
2023/01/07 07:27:45;;;;;;;17.17;15.37;;;;;;;3.17;95.44;93562.28;5086660;28;20201;-74
2023/01/07 07:30:12;;;;;;;16.97;15.27;;;;;;;3.39;94.02;93552.38;5086212;28;20225;-74
2023/01/07 07:32:37;;;;;;;16.33;14.93;;;;;;;3.31;93.10;93545.69;5088100;28;20185;-74
2023/01/07 07:35:03;;;;;;;16.67;14.97;;;;;;;3.38;93.27;93567.06;5086926;28;20223;-74
2023/01/07 07:37:28;;;;;;;15.97;14.57;;;;;;;3.41;93.25;93566.66;5087269;28;20193;-73
2023/01/07 07:39:54;;;;;;;15.47;14.07;;;;;;;3.11;93.31;93538.09;5084304;28;20225;-74
2023/01/07 07:42:19;;;;;;;15.03;13.73;;;;;;;3.14;94.38;93540.25;5089163;28;20189;-72
2023/01/07 07:44:45;;;;;;;14.17;12.57;;;;;;;3.31;94.26;93553.44;5090241;28;20261;-72
2023/01/07 07:47:10;;;;;;;16.37;14.97;;;;;;;3.29;94.00;93555.44;5089556;28;20177;-73
2023/01/07 07:49:36;;;;;;;16.43;14.90;;;;;;;3.43;93.85;93543.19;5090396;28;20213;-73
2023/01/07 07:52:01;;;;;;;17.40;15.83;;;;;;;3.58;92.43;93536.72;5091281;28;21472;-74
2023/01/07 07:54:27;;;;;;;16.30;14.87;;;;;;;3.52;92.92;93545.31;5091453;28;20228;-80
2023/01/07 07:56:52;;;;;;;15.00;13.53;;;;;;;3.66;92.97;93554.50;5090551;28;20185;-75
2023/01/07 07:59:18;;;;;;;15.97;14.57;;;;;;;3.84;91.58;93531.31;5091230;28;20228;-74
2023/01/07 08:01:43;;;;;;;15.80;14.33;;;;;;;4.22;89.42;93570.59;5088705;28;20177;-73
2023/01/07 08:04:08;;;;;;;15.27;13.87;;;;;;;3.67;89.89;93498.50;5091249;28;21174;-73
2023/01/07 08:06:34;;;;;;;16.00;14.50;;;;;;;4.00;90.94;93559.13;5092591;28;20219;-74
2023/01/07 08:09:00;;;;;;;17.17;15.67;;;;;;;4.02;90.18;93564.06;5090306;28;20220;-76
2023/01/07 08:11:25;;;;;;;15.83;14.43;;;;;;;4.05;89.58;93554.09;5090394;28;20185;-75
2023/01/07 08:13:50;;;;;;;16.33;14.67;;;;;;;4.16;93.34;93558.56;5090737;28;20218;-74
2023/01/07 08:16:16;;;;;;;16.07;14.60;;;;;;;4.34;89.58;93575.84;5088798;28;20199;-77
2023/01/07 08:18:41;;;;;;;22.57;14.67;;;;;;;4.09;89.38;93550.09;5090389;28;20243;-76
2023/01/07 08:21:07;;;;;;;15.07;13.50;;;;;;;4.23;89.60;93566.25;5088613;28;20221;-76
2023/01/07 08:23:33;;;;;;;16.60;15.10;;;;;;;4.16;89.69;93555.16;5090091;28;20204;-77
2023/01/07 08:26:01;;;;;;;20.47;15.60;;;;;;;4.16;89.92;93571.47;5091399;28;20221;-76
2023/01/07 08:28:27;;;;;;;16.27;14.27;;;;;;;4.24;89.53;93563.44;5089162;28;20216;-77
2023/01/07 08:30:52;;;;;;;24.07;16.03;;;;;;;4.67;93.95;93571.84;5091889;28;20229;-75
2023/01/07 08:33:18;;;;;;;21.63;15.67;;;;;;;4.38;89.64;93559.69;5091051;28;20192;-75
2023/01/07 08:35:44;;;;;;;16.97;15.27;;;;;;;4.78;88.87;93571.09;5091426;28;20236;-75
2023/01/07 08:38:09;;;;;;;15.20;13.90;;;;;;;5.00;86.77;93568.03;5092030;28;20248;-75
2023/01/07 08:40:36;;;;;;;23.60;16.07;;;;;;;4.98;86.35;93566.44;5091704;28;20205;-75
2023/01/07 08:43:04;;;;;;;18.43;15.07;;;;;;;4.75;87.09;93550.84;5092089;28;20189;-75
2023/01/07 08:45:30;;;;;;;15.73;14.37;;;;;;;5.16;85.81;93569.97;5089659;28;20213;-75
2023/01/07 08:47:59;;;;;;;15.50;13.93;;;;;;;5.05;85.93;93574.13;5091798;28;20191;-75
2023/01/07 08:50:29;;;;;;;15.73;14.23;;;;;;;5.24;85.20;93567.84;5091282;28;20241;-75
2023/01/07 08:52:55;;;;;;;16.73;15.23;;;;;;;5.24;85.63;93565.28;5090902;28;20197;-75
2023/01/07 08:55:22;;;;;;;19.80;14.00;;;;;;;5.37;83.90;93565.03;5092103;28;21830;-75
2023/01/07 08:57:48;;;;;;;19.17;15.73;;;;;;;5.25;84.85;93569.44;5091294;28;20297;-75
2023/01/07 09:00:14;;;;;;;16.73;15.07;;;;;;;5.36;85.12;93560.91;5093860;28;20782;-76
2023/01/07 09:02:40;;;;;;;17.60;15.80;;;;;;;5.55;83.24;93546.84;5091369;28;20199;-75
2023/01/07 09:05:06;;;;;;;20.43;16.37;;;;;;;5.72;82.10;93557.31;5090907;28;20236;-76
2023/01/07 09:07:31;;;;;;;22.30;16.90;;;;;;;5.40;83.60;93554.25;5091081;28;20188;-75
2023/01/07 09:09:56;;;;;;;22.50;15.97;;;;;;;5.54;84.15;93562.59;5090779;28;20220;-75
2023/01/07 09:12:22;;;;;;;17.47;15.63;;;;;;;5.67;82.70;93534.69;5091848;28;20192;-76
2023/01/07 09:14:47;;;;;;;19.80;14.27;;;;;;;5.76;82.66;93553.28;5090072;28;20239;-75
2023/01/07 09:17:13;;;;;;;17.07;15.67;;;;;;;5.45;83.02;93522.53;5090010;28;20205;-76
2023/01/07 09:19:38;;;;;;;17.10;15.23;;;;;;;5.87;81.73;93550.69;5090557;28;20242;-76
2023/01/07 09:22:03;;;;;;;17.00;15.23;;;;;;;5.63;82.67;93546.50;5090854;28;20189;-75
2023/01/07 09:24:29;;;;;;;16.67;15.17;;;;;;;6.05;80.87;93547.19;5090169;28;20228;-75
2023/01/07 09:26:54;;;;;;;16.83;14.83;;;;;;;5.83;80.40;93502.94;5091772;28;20177;-75
2023/01/07 09:29:20;;;;;;;17.50;15.70;;;;;;;5.91;81.45;93538.88;5089802;28;20217;-76
2023/01/07 09:31:45;;;;;;;15.93;14.53;;;;;;;6.02;80.99;93534.69;5091428;28;20196;-76
2023/01/07 09:34:10;;;;;;;16.93;15.33;;;;;;;6.37;79.44;93533.59;5090864;28;20228;-75
2023/01/07 09:36:36;;;;;;;17.17;15.77;;;;;;;6.38;78.84;93526.59;5090349;28;20192;-75
2023/01/07 09:39:02;;;;;;;16.83;15.43;;;;;;;6.16;79.88;93523.06;5089910;28;20197;-77
2023/01/07 09:41:50;;;;;;;16.97;15.07;;;;;;;6.45;78.20;93509.88;5092206;28;20208;-75
2023/01/07 09:44:36;;;;;;;16.40;14.93;;;;;;;6.08;78.43;93466.38;5089951;28;20333;-75
2023/01/07 09:47:03;;;;;;;16.37;14.80;;;;;;;6.54;77.82;93502.50;5088864;28;20223;-75
2023/01/07 09:49:31;;;;;;;16.23;14.77;;;;;;;6.47;78.44;93494.84;5089897;28;20232;-75
2023/01/07 09:52:20;;;;;;;16.90;14.30;;;;;;;6.54;78.37;93499.91;5090066;28;20742;-75
2023/01/07 09:54:49;;;;;;;18.30;15.00;;;;;;;6.79;77.16;93494.38;5087977;28;20251;-76
2023/01/07 09:57:16;;;;;;;20.40;15.83;;;;;;;6.41;79.00;93485.41;5092423;28;20179;-75
2023/01/07 09:59:43;;;;;;;17.93;15.73;;;;;;;6.71;76.90;93490.34;5089433;28;20228;-75
2023/01/07 10:02:55;;;;;;;20.07;15.53;;;;;;;6.88;76.31;93475.59;5090167;28;20204;-75
2023/01/07 10:05:59;;;;;;;16.73;15.30;;;;;;;6.98;76.12;93477.59;5060117;28;20216;-75
2023/01/07 10:08:40;;;;;;;17.67;15.43;;;;;;;7.08;76.09;93475.16;5089008;28;20212;-76
2023/01/07 10:11:41;;;;;;;16.90;14.30;;;;;;;6.74;78.27;93474.31;5091335;28;20228;-75
2023/01/07 10:14:20;;;;;;;18.27;15.17;;;;;;;6.66;78.34;93445.41;5079512;28;20221;-75
2023/01/07 10:16:59;;;;;;;18.97;15.23;;;;;;;6.68;78.13;93446.72;5089755;28;20251;-75
2023/01/07 10:19:40;;;;;;;18.93;15.73;;;;;;;6.71;78.46;93448.84;5088816;28;20259;-75
2023/01/07 10:22:24;;;;;;;17.20;14.87;;;;;;;7.33;76.11;93457.38;5088499;28;20184;-75
2023/01/07 10:24:55;;;;;;;17.57;15.97;;;;;;;7.28;75.15;93445.09;5090000;28;20604;-75
2023/01/07 10:27:31;;;;;;;15.67;14.27;;;;;;;7.52;74.63;93441.28;5089120;28;20177;-75
2023/01/07 10:30:01;;;;;;;17.23;15.73;;;;;;;7.43;75.15;93445.31;5088331;28;20319;-75
2023/01/07 10:32:31;;;;;;;16.90;15.30;;;;;;;7.38;75.97;93439.25;5089051;28;20192;-75
2023/01/07 10:34:58;;;;;;;19.77;16.77;;;;;;;7.33;75.99;93447.75;5088146;28;20224;-74
2023/01/07 10:37:36;;;;;;;16.50;14.80;;;;;;;7.18;76.65;93408.59;5089070;28;20173;-76
2023/01/07 10:40:07;;;;;;;17.37;15.53;;;;;;;7.33;75.66;93434.75;5089841;28;20243;-75
2023/01/07 10:42:44;;;;;;;17.13;15.53;;;;;;;7.22;76.39;93420.06;5089520;28;20185;-76
2023/01/07 10:45:15;;;;;;;18.50;15.83;;;;;;;7.64;75.00;93433.41;5088336;28;20243;-75
2023/01/07 10:47:59;;;;;;;16.73;15.03;;;;;;;7.86;73.76;93421.97;5088724;28;20272;-75
2023/01/07 10:50:31;;;;;;;17.10;15.40;;;;;;;7.58;74.77;93424.72;5090167;28;20243;-75
2023/01/07 10:53:15;;;;;;;17.50;15.77;;;;;;;7.75;74.39;93424.69;5088866;28;20195;-75
2023/01/07 10:56:11;;;;;;;16.77;14.03;;;;;;;7.92;73.16;93421.00;5088247;28;20214;-76
2023/01/07 10:58:39;;;;;;;18.37;16.63;;;;;;;7.80;73.56;93412.53;5088108;28;20181;-76
2023/01/07 11:01:07;;;;;;;18.20;16.40;;;;;;;7.67;74.21;93407.69;5089169;28;20304;-75
2023/01/07 11:03:33;;;;;;;19.97;15.80;;;;;;;7.78;73.97;93409.38;5090580;28;20176;-75
2023/01/07 11:06:03;;;;;;;21.00;15.30;;;;;;;7.68;74.22;93404.09;5088102;28;20284;-74
2023/01/07 11:08:37;;;;;;;19.57;17.77;;;;;;;7.73;73.98;93398.94;5089139;28;20212;-74
2023/01/07 11:11:04;;;;;;;17.80;16.20;;;;;;;7.85;73.84;93402.22;5087278;28;20797;-74
2023/01/07 11:13:37;;;;;;;18.37;16.40;;;;;;;7.98;72.97;93388.81;5090306;28;20185;-74
2023/01/07 11:16:10;;;;;;;19.63;16.77;;;;;;;8.01;71.96;93382.38;5089513;28;20221;-75
2023/01/07 11:18:54;;;;;;;18.13;15.97;;;;;;;7.81;76.32;93387.34;5092937;28;20188;-75
2023/01/07 11:21:32;;;;;;;16.97;15.17;;;;;;;8.23;72.41;93390.16;5092674;28;20201;-74
2023/01/07 11:23:57;;;;;;;19.77;16.07;;;;;;;8.38;71.81;93388.50;5092538;28;20267;-74
2023/01/07 11:26:30;;;;;;;19.23;17.37;;;;;;;8.07;73.15;93374.38;5093198;28;20199;-75
2023/01/07 11:29:12;;;;;;;18.83;16.80;;;;;;;8.12;72.14;93384.06;5091476;28;20234;-75
2023/01/07 11:31:57;;;;;;;18.53;16.73;;;;;;;8.13;72.19;93375.22;5093464;28;20188;-74
2023/01/07 11:34:29;;;;;;;21.37;17.83;;;;;;;8.25;71.60;93369.91;5091512;28;20224;-75
2023/01/07 11:36:54;;;;;;;20.27;18.13;;;;;;;8.30;71.11;93356.94;5094235;28;20219;-75